createdAt,value
2024-02-08T00:00:09.776Z,99749.03
2024-02-08T00:00:31.425Z,99744.09
2024-02-08T00:00:54.206Z,99748.81
2024-02-08T00:01:15.967Z,99740.97
2024-02-08T00:01:37.734Z,99736.66
2024-02-08T00:01:59.459Z,99731.22
2024-02-08T00:02:22.144Z,99740.69
2024-02-08T00:02:43.862Z,99744.31
2024-02-08T00:03:08.948Z,99737.91
2024-02-08T00:03:30.589Z,99737.78
2024-02-08T00:03:52.275Z,99726.38
2024-02-08T00:04:14.917Z,99742.78
2024-02-08T00:04:38.281Z,99737.47
2024-02-08T00:05:00.242Z,99729.53
2024-02-08T00:05:21.937Z,99732.94
2024-02-08T00:05:43.990Z,99737.19
2024-02-08T00:06:07.065Z,99740.66
2024-02-08T00:06:33.465Z,99738.00
2024-02-08T00:06:55.278Z,99729.03
2024-02-08T00:07:16.983Z,99735.06
2024-02-08T00:07:38.639Z,99738.69
2024-02-08T00:08:00.329Z,99730.91
2024-02-08T00:08:22.920Z,99732.38
2024-02-08T00:08:44.518Z,99736.75
2024-02-08T00:09:07.320Z,99736.97
2024-02-08T00:09:30.307Z,99741.03
2024-02-08T00:09:52.177Z,99695.84
2024-02-08T00:10:14.876Z,99729.31
2024-02-08T00:10:36.741Z,99737.25
2024-02-08T00:10:58.472Z,99726.81
2024-02-08T00:11:20.375Z,99728.63
2024-02-08T00:11:42.016Z,99729.59
2024-02-08T00:12:05.179Z,99727.75
2024-02-08T00:12:26.838Z,99710.56
2024-02-08T00:12:49.114Z,99724.25
2024-02-08T00:13:14.209Z,99725.72
2024-02-08T00:13:36.991Z,99720.41
2024-02-08T00:13:58.769Z,99737.88
2024-02-08T00:14:20.400Z,99722.00
2024-02-08T00:14:42.113Z,99723.69
2024-02-08T00:15:04.166Z,99716.69
2024-02-08T00:15:30.339Z,99723.56
2024-02-08T00:15:52.008Z,99722.66
2024-02-08T00:16:13.716Z,99723.56
2024-02-08T00:16:38.284Z,99726.44
2024-02-08T00:17:00.017Z,99727.25
2024-02-08T00:17:22.626Z,99726.22
2024-02-08T00:17:44.635Z,99726.13
2024-02-08T00:18:06.782Z,99731.22
2024-02-08T00:18:28.816Z,99735.47
2024-02-08T00:18:50.641Z,99730.19
2024-02-08T00:19:16.856Z,99737.97
2024-02-08T00:19:38.660Z,99724.06
2024-02-08T00:20:00.298Z,99711.91
2024-02-08T00:20:21.949Z,99728.25
2024-02-08T00:20:43.570Z,99742.22
2024-02-08T00:21:05.543Z,99729.94
2024-02-08T00:21:29.012Z,99729.00
2024-02-08T00:21:51.382Z,99732.59
2024-02-08T00:22:13.034Z,99733.50
2024-02-08T00:22:34.844Z,99727.34
2024-02-08T00:22:56.638Z,99735.97
2024-02-08T00:23:18.907Z,99736.84
2024-02-08T00:23:41.524Z,99734.09
2024-02-08T00:24:03.583Z,99730.63
2024-02-08T00:24:25.279Z,99733.94
2024-02-08T00:24:48.506Z,99739.16
2024-02-08T00:25:11.183Z,99733.81
2024-02-08T00:25:32.848Z,99739.84
2024-02-08T00:25:56.332Z,99739.75
2024-02-08T00:26:18.450Z,99733.63
2024-02-08T00:26:42.787Z,99731.84
2024-02-08T00:27:04.930Z,99742.38
2024-02-08T00:27:27.487Z,99735.41
2024-02-08T00:27:49.220Z,99739.78
2024-02-08T00:28:12.804Z,99735.41
2024-02-08T00:28:34.671Z,99737.94
2024-02-08T00:28:56.416Z,99738.06
2024-02-08T00:29:19.017Z,99741.44
2024-02-08T00:29:44.781Z,99739.66
2024-02-08T00:30:07.552Z,99728.41
2024-02-08T00:30:29.301Z,99727.63
2024-02-08T00:30:51.496Z,99736.22
2024-02-08T00:31:14.070Z,99735.28
2024-02-08T00:31:35.772Z,99718.06
2024-02-08T00:31:57.467Z,99737.00
2024-02-08T00:32:20.374Z,99735.19
2024-02-08T00:32:42.016Z,99724.28
2024-02-08T00:33:04.093Z,99735.09
2024-02-08T00:33:26.787Z,99739.34
2024-02-08T00:33:49.473Z,99734.09
2024-02-08T00:34:12.230Z,99732.22
2024-02-08T00:34:33.981Z,99727.16
2024-02-08T00:34:56.342Z,99738.72
2024-02-08T00:35:19.129Z,99734.38
2024-02-08T00:35:42.191Z,99730.00
2024-02-08T00:36:04.288Z,99730.13
2024-02-08T00:36:25.940Z,99733.69
2024-02-08T00:36:50.246Z,99737.97
2024-02-08T00:37:12.023Z,99721.50
2024-02-08T00:37:33.648Z,99731.81
2024-02-08T00:37:56.347Z,99735.28
2024-02-08T00:38:18.103Z,99725.66
2024-02-08T00:38:39.888Z,99737.97
2024-02-08T00:39:08.234Z,99728.41
2024-02-08T00:39:30.167Z,99728.41
2024-02-08T00:39:53.157Z,99733.50
2024-02-08T00:40:16.113Z,99726.53
2024-02-08T00:40:37.804Z,99728.63
2024-02-08T00:40:59.503Z,99734.78
2024-02-08T00:41:25.079Z,99732.91
2024-02-08T00:41:49.086Z,99733.69
2024-02-08T00:42:13.269Z,99735.50
2024-02-08T00:42:34.885Z,99730.09
2024-02-08T00:42:56.992Z,99725.44
2024-02-08T00:43:21.004Z,99728.84
2024-02-08T00:43:42.711Z,99714.09
2024-02-08T00:44:05.103Z,99725.16
2024-02-08T00:44:28.924Z,99735.56
2024-02-08T00:44:51.272Z,99723.22
2024-02-08T00:45:13.196Z,99726.03
2024-02-08T00:45:34.967Z,99721.97
2024-02-08T00:45:56.566Z,99723.47
2024-02-08T00:46:20.623Z,99720.88
2024-02-08T00:46:42.266Z,99719.13
2024-02-08T00:47:06.517Z,99717.72
2024-02-08T00:47:29.418Z,99721.78
2024-02-08T00:47:51.765Z,99723.88
2024-02-08T00:48:14.601Z,99717.53
2024-02-08T00:48:36.268Z,99719.28
2024-02-08T00:48:58.008Z,99715.81
2024-02-08T00:49:19.745Z,99717.41
2024-02-08T00:49:41.796Z,99724.44
2024-02-08T00:50:05.136Z,99717.31
2024-02-08T00:50:27.004Z,99719.97
2024-02-08T00:50:48.675Z,99719.88
2024-02-08T00:51:10.368Z,99721.56
2024-02-08T00:51:32.451Z,99725.84
2024-02-08T00:51:55.274Z,99716.22
2024-02-08T00:52:19.544Z,99711.91
2024-02-08T00:52:42.176Z,99722.25
2024-02-08T00:53:06.871Z,99723.22
2024-02-08T00:53:28.514Z,99731.03
2024-02-08T00:53:51.110Z,99718.91
2024-02-08T00:54:12.717Z,99723.19
2024-02-08T00:54:34.715Z,99715.03
2024-02-08T00:54:57.662Z,99715.03
2024-02-08T00:55:19.314Z,99725.38
2024-02-08T00:55:44.983Z,99720.13
2024-02-08T00:56:11.180Z,99721.59
2024-02-08T00:56:35.366Z,99712.53
2024-02-08T00:56:56.955Z,99716.84
2024-02-08T00:57:18.562Z,99725.59
2024-02-08T00:57:40.146Z,99719.38
2024-02-08T00:58:03.401Z,99718.59
2024-02-08T00:58:26.088Z,99719.63
2024-02-08T00:58:48.199Z,99713.41
2024-02-08T00:59:09.946Z,99716.03
2024-02-08T00:59:31.594Z,99712.47
2024-02-08T00:59:53.195Z,99714.25
2024-02-08T01:00:16.955Z,99716.00
2024-02-08T01:00:39.873Z,99712.47
2024-02-08T01:01:02.253Z,99700.31
2024-02-08T01:01:24.645Z,99706.28
2024-02-08T01:01:46.356Z,99713.34
2024-02-08T01:02:08.432Z,99713.34
2024-02-08T01:02:30.220Z,99702.63
2024-02-08T01:02:52.768Z,99705.09
2024-02-08T01:03:14.855Z,99709.44
2024-02-08T01:03:37.319Z,99699.06
2024-02-08T01:03:59.166Z,99710.25
2024-02-08T01:04:22.404Z,99715.44
2024-02-08T01:04:49.785Z,99713.00
2024-02-08T01:05:12.573Z,99709.47
2024-02-08T01:05:34.397Z,99706.09
2024-02-08T01:05:56.035Z,99708.88
2024-02-08T01:06:17.784Z,99706.09
2024-02-08T01:06:41.650Z,99703.75
2024-02-08T01:07:04.908Z,99703.63
2024-02-08T01:07:26.979Z,99711.25
2024-02-08T01:07:48.686Z,99707.69
2024-02-08T01:08:10.360Z,99706.66
2024-02-08T01:08:34.516Z,99710.06
2024-02-08T01:08:56.140Z,99710.06
2024-02-08T01:09:18.910Z,99709.94
2024-02-08T01:09:40.522Z,99705.75
2024-02-08T01:10:08.183Z,99715.34
2024-02-08T01:10:30.108Z,99706.38
2024-02-08T01:10:51.855Z,99715.16
2024-02-08T01:11:14.554Z,99708.88
2024-02-08T01:11:36.287Z,99711.44
2024-02-08T01:11:59.014Z,99709.56
2024-02-08T01:12:20.636Z,99701.63
2024-02-08T01:12:44.173Z,99705.09
2024-02-08T01:13:06.776Z,99700.75
2024-02-08T01:13:29.457Z,99702.53
2024-02-08T01:13:53.282Z,99705.94
2024-02-08T01:14:15.011Z,99710.47
2024-02-08T01:14:36.659Z,99709.56
2024-02-08T01:14:59.231Z,99706.97
2024-02-08T01:15:21.041Z,99705.44
2024-02-08T01:15:43.136Z,99688.28
2024-02-08T01:16:05.439Z,99701.84
2024-02-08T01:16:31.353Z,99698.25
2024-02-08T01:16:55.384Z,99702.50
2024-02-08T01:17:17.316Z,99701.63
2024-02-08T01:17:39.167Z,99702.66
2024-02-08T01:18:02.592Z,99705.31
2024-02-08T01:18:24.442Z,99691.34
2024-02-08T01:18:46.107Z,99699.03
2024-02-08T01:19:08.802Z,99701.56
2024-02-08T01:19:32.247Z,99705.31
2024-02-08T01:19:54.025Z,99700.94
2024-02-08T01:20:22.672Z,99705.31
2024-02-08T01:20:44.664Z,99702.81
2024-02-08T01:21:07.285Z,99711.53
2024-02-08T01:21:31.399Z,99706.13
2024-02-08T01:21:54.049Z,99697.25
2024-02-08T01:22:20.563Z,99700.72
2024-02-08T01:22:43.172Z,99699.66
2024-02-08T01:23:05.733Z,99705.00
2024-02-08T01:23:29.337Z,99700.75
2024-02-08T01:23:50.929Z,99704.28
2024-02-08T01:24:19.167Z,99700.22
2024-02-08T01:24:40.829Z,99699.09
2024-02-08T01:25:04.308Z,99712.22
2024-02-08T01:25:25.967Z,99704.28
2024-02-08T01:25:48.347Z,99704.31
2024-02-08T01:26:10.633Z,99704.28
2024-02-08T01:26:33.412Z,99706.91
2024-02-08T01:26:55.615Z,99706.97
2024-02-08T01:27:21.332Z,99705.19
2024-02-08T01:27:44.671Z,99698.19
2024-02-08T01:28:08.217Z,99720.03
2024-02-08T01:28:30.865Z,99712.16
2024-02-08T01:28:55.558Z,99708.59
2024-02-08T01:29:18.152Z,99715.53
2024-02-08T01:29:39.809Z,99716.34
2024-02-08T01:30:08.157Z,99712.88
2024-02-08T01:30:30.773Z,99705.75
2024-02-08T01:30:53.711Z,99709.31
2024-02-08T01:31:15.414Z,99707.34
2024-02-08T01:32:06.943Z,99714.47
2024-02-08T01:32:29.348Z,99717.81
2024-02-08T01:32:54.247Z,99704.66
2024-02-08T01:33:15.922Z,99707.41
2024-02-08T01:33:38.328Z,99711.72
2024-02-08T01:34:01.295Z,99684.88
2024-02-08T01:34:25.220Z,99709.75
2024-02-08T01:34:48.197Z,99716.75
2024-02-08T01:35:12.115Z,99714.91
2024-02-08T01:35:34.046Z,99708.75
2024-02-08T01:35:55.674Z,99714.19
2024-02-08T01:36:17.402Z,99711.66
2024-02-08T01:36:41.021Z,99708.81
2024-02-08T01:37:04.832Z,99708.03
2024-02-08T01:37:27.006Z,99715.84
2024-02-08T01:37:48.680Z,99719.28
2024-02-08T01:38:10.408Z,99719.28
2024-02-08T01:38:32.049Z,99720.16
2024-02-08T01:38:54.665Z,99718.44
2024-02-08T01:39:23.985Z,99718.44
2024-02-08T01:39:45.718Z,99723.59
2024-02-08T01:40:17.407Z,99704.56
2024-02-08T01:40:41.267Z,99723.47
2024-02-08T01:41:07.211Z,99713.81
2024-02-08T01:41:29.108Z,99707.47
2024-02-08T01:41:51.024Z,99720.75
2024-02-08T01:42:13.119Z,99717.19
2024-02-08T01:42:35.718Z,99712.81
2024-02-08T01:42:58.425Z,99717.19
2024-02-08T01:43:20.911Z,99718.00
2024-02-08T01:43:43.520Z,99718.09
2024-02-08T01:44:08.811Z,99713.63
2024-02-08T01:44:30.476Z,99710.16
2024-02-08T01:45:08.192Z,99705.66
2024-02-08T01:45:31.461Z,99712.69
2024-02-08T01:45:55.467Z,99710.97
2024-02-08T01:46:17.732Z,99709.09
2024-02-08T01:46:39.756Z,99707.41
2024-02-08T01:47:01.519Z,99711.81
2024-02-08T01:47:23.539Z,99713.53
2024-02-08T01:47:48.806Z,99711.47
2024-02-08T01:48:18.035Z,99705.31
2024-02-08T01:48:46.073Z,99712.09
2024-02-08T01:49:09.463Z,99718.69
2024-02-08T01:49:33.101Z,99717.50
2024-02-08T01:49:54.926Z,99706.22
2024-02-08T01:50:16.912Z,99710.75
2024-02-08T01:50:50.083Z,99715.06
2024-02-08T01:51:14.152Z,99716.91
2024-02-08T01:51:39.132Z,99734.38
2024-02-08T01:52:01.825Z,99721.22
2024-02-08T01:52:24.759Z,99712.53
2024-02-08T01:52:59.298Z,99715.78
2024-02-08T01:53:28.645Z,99716.97
2024-02-08T01:53:51.005Z,99724.00
2024-02-08T01:54:13.716Z,99726.41
2024-02-08T01:54:35.447Z,99722.72
2024-02-08T01:54:58.434Z,99730.88
2024-02-08T01:55:22.147Z,99719.63
2024-02-08T01:55:50.791Z,99716.28
2024-02-08T01:56:13.488Z,99725.72
2024-02-08T01:56:38.023Z,99720.44
2024-02-08T01:57:02.617Z,99721.19
2024-02-08T01:57:24.391Z,99727.28
2024-02-08T01:57:51.510Z,99724.72
2024-02-08T01:58:16.108Z,99724.63
2024-02-08T01:58:45.195Z,99735.91
2024-02-08T01:59:39.282Z,99729.78
2024-02-08T02:00:14.103Z,99725.53
2024-02-08T02:00:50.708Z,99730.84
2024-02-08T02:01:14.240Z,99726.47
2024-02-08T02:01:39.237Z,99719.22
2024-02-08T02:02:03.061Z,99719.03
2024-02-08T02:02:28.388Z,99724.47
2024-02-08T02:02:54.827Z,99728.75
2024-02-08T02:03:17.535Z,99719.84
2024-02-08T02:03:42.714Z,99725.75
2024-02-08T02:04:08.998Z,99710.16
2024-02-08T02:04:31.503Z,99726.53
2024-02-08T02:04:53.575Z,99720.31
2024-02-08T02:05:19.010Z,99722.69
2024-02-08T02:05:43.826Z,99718.22
2024-02-08T02:06:09.243Z,99717.31
2024-02-08T02:06:30.992Z,99711.91
2024-02-08T02:06:52.800Z,99723.34
2024-02-08T02:07:14.484Z,99714.47
2024-02-08T02:07:36.663Z,99715.28
2024-02-08T02:08:00.127Z,99707.59
2024-02-08T02:08:24.937Z,99726.53
2024-02-08T02:08:54.642Z,99718.53
2024-02-08T02:09:25.116Z,99713.13
2024-02-08T02:09:48.078Z,99721.13
2024-02-08T02:10:10.404Z,99713.50
2024-02-08T02:10:33.518Z,99723.28
2024-02-08T02:11:02.252Z,99719.78
2024-02-08T02:11:30.146Z,99718.06
2024-02-08T02:11:57.150Z,99717.06
2024-02-08T02:12:26.457Z,99718.91
2024-02-08T02:12:49.705Z,99711.06
2024-02-08T02:13:11.852Z,99716.22
2024-02-08T02:13:35.455Z,99720.50
2024-02-08T02:13:59.308Z,99721.31
2024-02-08T02:14:30.106Z,99712.38
2024-02-08T02:14:54.214Z,99714.16
2024-02-08T02:15:16.276Z,99717.56
2024-02-08T02:15:39.157Z,99706.91
2024-02-08T02:16:02.040Z,99716.59
2024-02-08T02:16:24.413Z,99713.94
2024-02-08T02:16:47.653Z,99718.31
2024-02-08T02:17:12.980Z,99714.91
2024-02-08T02:17:35.631Z,99720.31
2024-02-08T02:17:57.320Z,99718.53
2024-02-08T02:18:19.230Z,99715.78
2024-02-08T02:18:41.154Z,99719.22
2024-02-08T02:19:07.589Z,99709.75
2024-02-08T02:19:29.307Z,99712.94
2024-02-08T02:19:51.034Z,99716.25
2024-02-08T02:20:14.101Z,99719.00
2024-02-08T02:20:36.349Z,99708.28
2024-02-08T02:20:58.236Z,99700.53
2024-02-08T02:21:22.799Z,99717.81
2024-02-08T02:21:45.575Z,99707.31
2024-02-08T02:22:08.764Z,99713.38
2024-02-08T02:22:33.173Z,99713.03
2024-02-08T02:22:55.041Z,99711.78
2024-02-08T02:23:20.044Z,99713.56
2024-02-08T02:23:43.417Z,99714.38
2024-02-08T02:24:05.794Z,99716.88
2024-02-08T02:24:27.607Z,99708.28
2024-02-08T02:24:49.713Z,99717.81
2024-02-08T02:25:11.825Z,99710.72
2024-02-08T02:25:33.485Z,99712.50
2024-02-08T02:25:56.374Z,99710.72
2024-02-08T02:26:19.738Z,99707.22
2024-02-08T02:26:41.580Z,99716.09
2024-02-08T02:27:05.892Z,99710.25
2024-02-08T02:27:28.078Z,99714.84
2024-02-08T02:27:54.266Z,99706.00
2024-02-08T02:28:18.692Z,99714.66
2024-02-08T02:28:41.242Z,99675.91
2024-02-08T02:29:04.368Z,99709.56
2024-02-08T02:29:27.838Z,99709.47
2024-02-08T02:29:54.309Z,99710.28
2024-02-08T02:30:17.519Z,99706.72
2024-02-08T02:30:39.643Z,99704.94
2024-02-08T02:31:07.010Z,99697.94
2024-02-08T02:31:29.166Z,99706.72
2024-02-08T02:31:52.985Z,99698.78
2024-02-08T02:32:16.850Z,99707.34
2024-02-08T02:32:39.441Z,99702.03
2024-02-08T02:33:02.904Z,99704.50
2024-02-08T02:33:26.526Z,99702.19
2024-02-08T02:33:50.226Z,99703.47
2024-02-08T02:34:12.001Z,99700.25
2024-02-08T02:34:37.307Z,99702.13
2024-02-08T02:34:59.178Z,99698.56
2024-02-08T02:35:23.357Z,99702.44
2024-02-08T02:35:54.578Z,99700.06
2024-02-08T02:36:35.349Z,99699.06
2024-02-08T02:37:13.453Z,99693.66
2024-02-08T02:37:48.807Z,99694.38
2024-02-08T02:38:19.617Z,99676.53
2024-02-08T02:39:00.174Z,99700.69
2024-02-08T02:39:27.072Z,99713.78
2024-02-08T02:39:48.784Z,99709.59
2024-02-08T02:40:10.506Z,99706.81
2024-02-08T02:40:34.895Z,99713.97
2024-02-08T02:40:56.662Z,99709.59
2024-02-08T02:41:19.484Z,99692.31
2024-02-08T02:41:41.447Z,99709.59
2024-02-08T02:42:03.065Z,99708.84
2024-02-08T02:42:26.539Z,99714.88
2024-02-08T02:42:49.278Z,99705.13
2024-02-08T02:43:11.396Z,99709.59
2024-02-08T02:43:34.220Z,99705.38
2024-02-08T02:43:56.025Z,99709.53
2024-02-08T02:44:17.747Z,99703.19
2024-02-08T02:44:40.337Z,99705.56
2024-02-08T02:45:02.375Z,99704.56
2024-02-08T02:45:24.789Z,99714.09
2024-02-08T02:45:46.522Z,99715.72
2024-02-08T02:46:08.212Z,99705.09
2024-02-08T02:46:30.827Z,99708.59
2024-02-08T02:46:52.469Z,99707.56
2024-02-08T02:47:14.854Z,99700.56
2024-02-08T02:47:38.036Z,99680.66
2024-02-08T02:48:03.159Z,99691.53
2024-02-08T02:48:26.350Z,99696.63
2024-02-08T02:48:48.162Z,99688.59
2024-02-08T02:49:10.725Z,99689.44
2024-02-08T02:49:37.725Z,99671.25
2024-02-08T02:49:59.846Z,99688.41
2024-02-08T02:50:22.894Z,99688.53
2024-02-08T02:50:45.089Z,99689.28
2024-02-08T02:51:06.872Z,99693.88
2024-02-08T02:51:31.953Z,99687.53
2024-02-08T02:51:54.588Z,99682.19
2024-02-08T02:52:16.196Z,99682.16
2024-02-08T02:52:37.899Z,99675.81
2024-02-08T02:52:59.655Z,99681.84
2024-02-08T02:53:21.343Z,99686.25
2024-02-08T02:53:43.954Z,99674.97
2024-02-08T02:54:06.173Z,99689.72
2024-02-08T02:54:31.813Z,99679.88
2024-02-08T02:54:54.639Z,99678.22
2024-02-08T02:55:16.322Z,99685.00
2024-02-08T02:55:38.553Z,99665.94
2024-02-08T02:56:01.309Z,99676.88
2024-02-08T02:56:22.993Z,99683.88
2024-02-08T02:56:48.477Z,99678.91
2024-02-08T02:57:12.058Z,99684.75
2024-02-08T02:57:37.065Z,99690.88
2024-02-08T02:57:58.883Z,99689.13
2024-02-08T02:58:21.507Z,99691.72
2024-02-08T02:58:43.120Z,99686.31
2024-02-08T02:59:04.880Z,99686.31
2024-02-08T02:59:27.745Z,99676.97
2024-02-08T02:59:49.450Z,99686.34
2024-02-08T03:00:22.156Z,99692.47
2024-02-08T03:00:45.649Z,99691.53
2024-02-08T03:01:07.737Z,99690.59
2024-02-08T03:01:34.888Z,99691.41
2024-02-08T03:01:57.127Z,99693.25
2024-02-08T03:02:29.236Z,99688.03
2024-02-08T03:02:53.898Z,99699.34
2024-02-08T03:03:16.830Z,99694.88
2024-02-08T03:03:38.812Z,99693.91
2024-02-08T03:04:00.893Z,99690.38
2024-02-08T03:04:23.327Z,99699.28
2024-02-08T03:04:46.099Z,99699.34
2024-02-08T03:05:08.668Z,99702.03
2024-02-08T03:05:32.049Z,99699.72
2024-02-08T03:05:54.279Z,99694.69
2024-02-08T03:06:17.279Z,99697.34
2024-02-08T03:06:43.821Z,99694.47
2024-02-08T03:07:07.629Z,99694.41
2024-02-08T03:07:29.852Z,99692.81
2024-02-08T03:07:52.792Z,99697.00
2024-02-08T03:08:17.704Z,99701.31
2024-02-08T03:08:42.378Z,99695.16
2024-02-08T03:09:06.783Z,99691.47
2024-02-08T03:09:29.445Z,99695.16
2024-02-08T03:09:52.421Z,99699.47
2024-02-08T03:10:14.533Z,99700.41
2024-02-08T03:10:38.975Z,99697.16
2024-02-08T03:11:00.861Z,99686.84
2024-02-08T03:11:22.503Z,99690.97
2024-02-08T03:11:45.860Z,99687.28
2024-02-08T03:12:10.977Z,99685.66
2024-02-08T03:12:33.896Z,99688.91
2024-02-08T03:12:55.515Z,99687.91
2024-02-08T03:13:17.199Z,99689.81
2024-02-08T03:13:40.911Z,99687.22
2024-02-08T03:14:09.145Z,99681.16
2024-02-08T03:14:30.812Z,99683.59
2024-02-08T03:14:59.067Z,99685.31
2024-02-08T03:15:23.368Z,99679.19
2024-02-08T03:15:44.955Z,99683.66
2024-02-08T03:16:11.011Z,99680.16
2024-02-08T03:16:37.416Z,99677.31
2024-02-08T03:17:03.106Z,99678.03
2024-02-08T03:17:24.925Z,99684.38
2024-02-08T03:17:47.507Z,99682.59
2024-02-08T03:18:10.275Z,99682.50
2024-02-08T03:18:32.216Z,99677.22
2024-02-08T03:18:53.951Z,99676.16
2024-02-08T03:19:17.029Z,99682.19
2024-02-08T03:19:39.227Z,99677.84
2024-02-08T03:20:01.407Z,99678.63
2024-02-08T03:20:25.777Z,99669.88
2024-02-08T03:20:48.068Z,99675.06
2024-02-08T03:21:10.019Z,99671.47
2024-02-08T03:21:36.726Z,99670.59
2024-02-08T03:22:00.386Z,99667.22
2024-02-08T03:22:23.001Z,99671.72
2024-02-08T03:22:45.354Z,99656.19
2024-02-08T03:23:07.140Z,99668.41
2024-02-08T03:23:28.761Z,99666.53
2024-02-08T03:23:51.496Z,99665.00
2024-02-08T03:24:14.778Z,99667.75
2024-02-08T03:24:37.325Z,99669.28
2024-02-08T03:24:59.369Z,99668.47
2024-02-08T03:25:22.878Z,99667.59
2024-02-08T03:25:44.668Z,99667.75
2024-02-08T03:26:08.315Z,99672.06
2024-02-08T03:26:30.765Z,99672.03
2024-02-08T03:26:52.951Z,99663.41
2024-02-08T03:27:14.658Z,99669.63
2024-02-08T03:27:36.244Z,99665.13
2024-02-08T03:27:58.929Z,99655.66
2024-02-08T03:28:24.201Z,99656.38
2024-02-08T03:28:47.331Z,99659.97
2024-02-08T03:29:12.654Z,99647.19
2024-02-08T03:29:35.614Z,99659.97
2024-02-08T03:29:58.688Z,99657.22
2024-02-08T03:30:24.126Z,99663.34
2024-02-08T03:30:45.904Z,99661.59
2024-02-08T03:31:10.162Z,99657.25
2024-02-08T03:31:31.914Z,99662.53
2024-02-08T03:31:53.663Z,99669.75
2024-02-08T03:32:16.230Z,99670.66
2024-02-08T03:32:38.155Z,99663.59
2024-02-08T03:33:03.500Z,99660.72
2024-02-08T03:33:25.170Z,99670.28
2024-02-08T03:33:46.926Z,99664.13
2024-02-08T03:34:10.028Z,99653.50
2024-02-08T03:34:32.456Z,99656.28
2024-02-08T03:34:55.044Z,99667.84
2024-02-08T03:35:20.450Z,99662.53
2024-02-08T03:35:44.494Z,99665.88
2024-02-08T03:36:07.928Z,99639.94
2024-02-08T03:36:30.593Z,99664.97
2024-02-08T03:36:52.184Z,99661.25
2024-02-08T03:37:15.126Z,99665.59
2024-02-08T03:37:36.820Z,99660.28
2024-02-08T03:38:01.963Z,99647.31
2024-02-08T03:38:25.147Z,99621.66
2024-02-08T03:38:48.384Z,99654.31
2024-02-08T03:39:14.465Z,99653.47
2024-02-08T03:39:36.656Z,99656.16
2024-02-08T03:40:00.739Z,99656.28
2024-02-08T03:40:22.821Z,99651.72
2024-02-08T03:40:44.572Z,99647.16
2024-02-08T03:41:06.333Z,99656.06
2024-02-08T03:41:27.995Z,99650.91
2024-02-08T03:41:49.582Z,99640.78
2024-02-08T03:42:12.804Z,99646.81
2024-02-08T03:42:36.462Z,99649.41
2024-02-08T03:42:58.343Z,99638.19
2024-02-08T03:43:24.462Z,99646.19
2024-02-08T03:43:49.052Z,99650.47
2024-02-08T03:44:13.362Z,99628.69
2024-02-08T03:44:36.200Z,99645.06
2024-02-08T03:45:01.791Z,99646.72
2024-02-08T03:45:24.619Z,99641.41
2024-02-08T03:45:47.859Z,99643.22
2024-02-08T03:46:09.486Z,99647.81
2024-02-08T03:46:32.869Z,99654.72
2024-02-08T03:46:55.021Z,99651.22
2024-02-08T03:47:18.234Z,99642.91
2024-02-08T03:47:40.630Z,99645.78
2024-02-08T03:48:02.587Z,99643.78
2024-02-08T03:48:24.510Z,99650.59
2024-02-08T03:48:47.422Z,99652.19
2024-02-08T03:49:09.990Z,99645.06
2024-02-08T03:49:32.614Z,99652.84
2024-02-08T03:49:54.429Z,99650.97
2024-02-08T03:50:16.334Z,99647.28
2024-02-08T03:50:38.446Z,99638.34
2024-02-08T03:51:02.098Z,99646.13
2024-02-08T03:51:24.141Z,99640.88
2024-02-08T03:51:48.163Z,99638.19
2024-02-08T03:52:10.651Z,99643.44
2024-02-08T03:52:33.699Z,99649.44
2024-02-08T03:52:56.355Z,99640.72
2024-02-08T03:53:19.288Z,99640.78
2024-02-08T03:53:44.080Z,99638.06
2024-02-08T03:54:09.748Z,99639.78
2024-02-08T03:54:31.963Z,99622.56
2024-02-08T03:54:55.159Z,99643.31
2024-02-08T03:55:17.806Z,99632.97
2024-02-08T03:55:40.196Z,99643.50
2024-02-08T03:56:01.842Z,99645.09
2024-02-08T03:56:27.713Z,99646.69
2024-02-08T03:56:51.783Z,99651.06
2024-02-08T03:57:14.052Z,99644.94
2024-02-08T03:57:36.997Z,99641.63
2024-02-08T03:58:01.465Z,99642.63
2024-02-08T03:58:24.564Z,99646.81
2024-02-08T03:58:47.785Z,99640.53
2024-02-08T03:59:12.916Z,99645.81
2024-02-08T03:59:34.825Z,99643.31
2024-02-08T03:59:56.466Z,99641.75
2024-02-08T04:00:29.045Z,99639.94
2024-02-08T04:00:54.649Z,99633.59
2024-02-08T04:01:21.266Z,99635.22
2024-02-08T04:01:44.430Z,99639.66
2024-02-08T04:02:06.647Z,99638.06
2024-02-08T04:02:28.430Z,99638.97
2024-02-08T04:02:51.258Z,99641.88
2024-02-08T04:03:15.512Z,99641.06
2024-02-08T04:03:53.892Z,99635.69
2024-02-08T04:04:17.454Z,99634.88
2024-02-08T04:04:55.364Z,99642.84
2024-02-08T04:05:23.306Z,99633.16
2024-02-08T04:06:00.875Z,99640.16
2024-02-08T04:06:38.262Z,99635.69
2024-02-08T04:07:20.331Z,99638.94
2024-02-08T04:07:58.525Z,99647.59
2024-02-08T04:08:33.799Z,99648.34
2024-02-08T04:09:09.341Z,99632.19
2024-02-08T04:09:38.033Z,99654.50
2024-02-08T04:10:12.184Z,99653.50
2024-02-08T04:10:48.769Z,99650.13
2024-02-08T04:11:28.986Z,99657.06
2024-02-08T04:12:09.345Z,99657.00
2024-02-08T04:12:49.568Z,99660.59
2024-02-08T04:13:44.512Z,99658.75
2024-02-08T04:14:24.412Z,99649.22
2024-02-08T04:15:04.564Z,99649.50
2024-02-08T04:15:46.826Z,99667.47
2024-02-08T04:16:27.058Z,99657.75
2024-02-08T04:17:07.205Z,99656.03
2024-02-08T04:17:47.380Z,99662.00
2024-02-08T04:18:27.737Z,99662.91
2024-02-08T04:19:08.230Z,99656.56
2024-02-08T04:19:48.344Z,99666.09
2024-02-08T04:20:28.460Z,99658.16
2024-02-08T04:21:08.811Z,99662.63
2024-02-08T04:21:49.193Z,99655.47
2024-02-08T04:22:29.578Z,99662.44
2024-02-08T04:23:11.207Z,99659.91
2024-02-08T04:23:51.433Z,99652.19
2024-02-08T04:24:46.339Z,99649.50
2024-02-08T04:25:26.869Z,99641.56
2024-02-08T04:26:12.340Z,99655.44
2024-02-08T04:26:52.664Z,99642.31
2024-02-08T04:27:32.872Z,99647.44
2024-02-08T04:28:12.994Z,99644.84
2024-02-08T04:28:53.417Z,99636.41
2024-02-08T04:29:33.408Z,99641.94
2024-02-08T04:30:13.648Z,99638.25
2024-02-08T04:30:53.876Z,99651.47
2024-02-08T04:31:34.382Z,99645.94
2024-02-08T04:32:14.852Z,99644.16
2024-02-08T04:32:55.331Z,99644.13
2024-02-08T04:33:35.892Z,99648.34
2024-02-08T04:34:16.191Z,99639.50
2024-02-08T04:34:58.210Z,99640.78
2024-02-08T04:35:38.369Z,99643.34
2024-02-08T04:36:18.348Z,99636.22
2024-02-08T04:36:58.676Z,99641.38
2024-02-08T04:37:38.758Z,99648.28
2024-02-08T04:38:20.805Z,99632.59
2024-02-08T04:39:00.954Z,99636.19
2024-02-08T04:39:41.308Z,99634.50
2024-02-08T04:40:21.640Z,99642.38
2024-02-08T04:41:03.182Z,99630.06
2024-02-08T04:41:43.630Z,99631.00
2024-02-08T04:42:29.541Z,99639.66
2024-02-08T04:43:17.303Z,99640.41
2024-02-08T04:44:07.128Z,99644.16
2024-02-08T04:44:58.567Z,99646.69
2024-02-08T04:45:48.542Z,99650.50
2024-02-08T04:46:38.833Z,99655.59
2024-02-08T04:47:40.043Z,99653.69
2024-02-08T04:48:25.690Z,99654.56
2024-02-08T04:49:12.164Z,99652.66
2024-02-08T04:49:59.446Z,99649.03
2024-02-08T04:50:39.464Z,99646.28
2024-02-08T04:51:19.881Z,99649.75
2024-02-08T04:52:03.570Z,99636.91
2024-02-08T04:52:43.717Z,99644.78
2024-02-08T04:53:25.121Z,99643.16
2024-02-08T04:53:47.756Z,99635.00
2024-02-08T04:54:10.651Z,99640.53
2024-02-08T04:54:33.456Z,99638.66
2024-02-08T04:54:55.304Z,99644.09
2024-02-08T04:55:17.008Z,99629.88
2024-02-08T04:55:38.630Z,99635.25
2024-02-08T04:56:01.295Z,99635.25
2024-02-08T04:56:23.001Z,99639.63
2024-02-08T04:56:47.875Z,99642.25